Qualifying - Red
Course: Road America · 2026-09-05 02:20PM
Weather Conditions
Temp 74°F
(64–74°F range)
Temp type NORMAL
Track DRY
Precip 0.0 mm (NONE)
Humidity 83%
Wind 12 km/h
Cloud 61%
OVERALL
BY CLASS
| CLASS | POS | # | NAME | BEST LAP | GAP | INTERVAL | LAPS |
|---|---|---|---|---|---|---|---|
| GTA3 | 1 | 014 | CORY FRIEDMAN | 2:07.339 | - | - | 6 |
| 2 | 28 | BOB MUELLER | 2:07.343 | 0.004 | 0.004 | 4 | |
| 3 | 81 | GEOFF ISRINGHAUSEN | 2:14.388 | 7.049 | 7.045 | 8 | |
| 4 | 559 | MIKE KRESSER | 2:16.852 | 9.513 | 2.464 | 6 | |
| STG | 1 | 267 | MATTHEW SIEGAL | 2:09.963 | - | - | 4 |
| 2 | 211 | ERIK BENEDIKT | 2:11.371 | 1.408 | 1.408 | 5 | |
| 3 | 270 | GRIFFIN FUJII | 2:11.556 | 1.593 | 0.185 | 6 | |
| 4 | 212 | RUSSELL FARHANG | 2:11.844 | 1.881 | 0.288 | 8 | |
| 5 | 227 | JOEL JOHNSON | 2:12.372 | 2.409 | 0.528 | 7 | |
| 6 | 277 | TOM BURKE | 2:13.707 | 3.744 | 1.335 | 7 | |
| 7 | 233 | DARREN FENZ | 2:14.149 | 4.186 | 0.442 | 8 | |
| 8 | 272 | TROY PETERSEN | 2:14.561 | 4.598 | 0.412 | 8 | |
| 9 | 219 | MARK POLING | 2:19.177 | 9.214 | 4.616 | 6 | |
| GTC8 | 1 | 24 | EARL TUCKER IV | 2:10.028 | - | - | 6 |
| 2 | 262 | JOSEPH G VIOLA | 2:12.301 | 2.273 | 2.273 | 7 | |
| 3 | 38 | TOPHER EVERETT | 2:12.609 | 2.581 | 0.308 | 5 | |
| 4 | 17 | MARK CALZARETTA | 2:12.793 | 2.765 | 0.184 | 6 | |
| 5 | 46 | EARL TUCKER III | 2:13.296 | 3.268 | 0.503 | 5 | |
| 6 | 844 | GIANLUCA PETTITI | 2:13.568 | 3.540 | 0.272 | 8 | |
| 7 | 112 | KEITH JEZEK | 2:14.145 | 4.117 | 0.577 | 8 | |
| 8 | 159 | SCOOP HEAVEY | 2:18.311 | 8.283 | 4.166 | 4 | |
| GTA4 | 1 | 57 | JOHN GOETZ | 2:10.777 | - | - | 8 |
| 2 | 91 | RENE ROBICHAUD | 2:11.332 | 0.555 | 0.555 | 7 | |
| 3 | 59 | KEVIN O'CONNELL | 2:13.694 | 2.917 | 2.362 | 8 | |
| 4 | 71 | GREGG ESAKOFF | 2:14.111 | 3.334 | 0.417 | 6 | |
| 5 | 08 | CLIFF CAYER | 2:14.141 | 3.364 | 0.030 | 7 | |
| GTA2 | 1 | 960 | KEVIN ROUSH | 2:12.495 | - | - | 8 |
| GTC7 | 1 | 41 | CORY LIBKA | 2:13.986 | - | - | 5 |
| 2 | 77 | MICHAEL WILLIAMS | 2:15.051 | 1.065 | 1.065 | 7 | |
| 3 | 338 | ERNIE PUZELIS | 2:17.083 | 3.097 | 2.032 | 6 | |
| STC | 1 | 182 | CONNOR HARE | 2:15.710 | - | - | 6 |
| 2 | 176 | PETER HAABESTAD | 2:17.596 | 1.886 | 1.886 | 7 | |
| 3 | 121 | DOUG LAWSON | 2:19.706 | 3.996 | 2.110 | 7 | |
| 4 | 195 | MICHAEL NANCE | 2:20.820 | 5.110 | 1.114 | 7 | |
| GTC6 | 1 | 924 | JEFF SMITH | 2:17.402 | - | - | 7 |
| 2 | 74 | KEITH CLARK | 2:18.460 | 1.058 | 1.058 | 8 | |
| 3 | 707 | KERRY BROWN | 2:19.098 | 1.696 | 0.638 | 8 | |
| GT1 | 1 | 7 | STEVE PARKER | 2:18.432 | - | - | 8 |
| 2 | 271 | KEITH ERICKSON | 2:18.629 | 0.197 | 0.197 | 7 | |
| GTC5 | 1 | 44 | JEAN AUDET | 2:23.781 | - | - | 7 |
Pole Position